Decoded Metar for PAPG (PETERSBURG in AK, USA) (IATA:PSG) | Meteo·Mobile Aviation Weather
aviador You're here:

PAPG Decoded Metar

PETERSBURG in AK, USA
Report Time2018-11-16 03:56:00
UTC Time2018-11-16 04:13:24
Flight Rules ifr IFR
Wind100° at 03 kt
W.Decomp.*RWY 05: 2.6 kt HW 1.5 kt RCW
W.Rank100° ranks 6
Current wind is below 100° avg. (5.7)
Visibility9999 m
Phenomena:N/A
Clouds:Overcast 006 Hf
Expected CloudBase > 400 ft AGL from Temp-Dew spread
Ceiling600 ft
Temp06°C (ISA -9)
Dew Point05°C (93% RH)
AAT3.8°C
QNH1025 hPa
Density Alt-1,312 ft
Elevation49 ft
Report Wrong Elevation
Raw Report
PAPG 160356Z 10003KT 10SM OVC006 06/05 A3028 RMK AO2 SLP259
T00560050=

Extra information for PAPG:More info

Metar Taf Metar & Taf Last 4 Metars F.Rules Stats Wind Profile Meteogram Temp Stats Airport Information Weather charts Add Link Nearby VenuesMetar ALERT Operation Metar Decoded Social comments

AIRNAV info for PAPG